Time;durP1;ratioP1;P1;durP2;ratioP2;P2;SDS_P1;SDS_P2;PMS_P1;PMS_P2;Temp;Humidity;BMP_temperature;BMP_pressure;BME280_temperature;BME280_humidity;BME280_pressure;Samples;Min_cycle;Max_cycle;Signal;HPM_P1;HPM_P2
2021/08/24 06:04:19;;;;;;;11.43;10.33;;;14.20;99.90;;;;;;4801016;26;20491;-84
2021/08/24 06:13:27;;;;;;;11.13;10.07;;;14.30;99.90;;;;;;4779316;29;20558;-84
2021/08/24 06:19:07;;;;;;;11.07;10.00;;;14.40;99.90;;;;;;4925010;29;20996;-85
2021/08/24 06:21:34;;;;;;;10.23;9.33;;;14.50;99.90;;;;;;4945848;29;20459;-85
2021/08/24 06:24:02;;;;;;;11.10;10.10;;;14.40;99.90;;;;;;4951700;28;20442;-81
2021/08/24 06:26:29;;;;;;;9.87;8.97;;;14.50;99.90;;;;;;4957831;29;20445;-81
2021/08/24 06:28:56;;;;;;;10.53;9.53;;;14.70;99.90;;;;;;4964131;28;20960;-84
2021/08/24 06:31:26;;;;;;;9.73;8.73;;;14.80;99.90;;;;;;4957588;29;20452;-83
2021/08/24 06:33:54;;;;;;;11.83;10.97;;;14.90;99.90;;;;;;4957946;28;20493;-84
2021/08/24 06:36:24;;;;;;;10.50;8.53;;;14.90;99.90;;;;;;4958060;28;20441;-84
2021/08/24 06:38:51;;;;;;;8.40;7.77;;;14.70;99.90;;;;;;4958357;29;20482;-84
2021/08/24 06:41:20;;;;;;;9.57;8.73;;;14.60;99.90;;;;;;4958766;29;20453;-83
2021/08/24 06:43:47;;;;;;;9.10;8.30;;;14.60;99.90;;;;;;4958658;29;20457;-83
2021/08/24 06:46:13;;;;;;;8.80;8.00;;;14.60;99.90;;;;;;4956395;28;20465;-84
2021/08/24 06:48:40;;;;;;;9.10;8.20;;;14.60;99.90;;;;;;4955068;28;20481;-83
2021/08/24 06:51:08;;;;;;;7.57;6.97;;;14.60;99.90;;;;;;4957783;29;20825;-84
2021/08/24 06:53:37;;;;;;;9.73;8.77;;;14.80;99.90;;;;;;4956755;29;20579;-83
2021/08/24 06:56:05;;;;;;;9.93;8.10;;;14.60;99.90;;;;;;4957560;29;20457;-86
2021/08/24 06:58:32;;;;;;;9.00;8.30;;;14.70;99.90;;;;;;4950023;29;20481;-86
2021/08/24 07:00:59;;;;;;;8.53;7.73;;;14.80;99.90;;;;;;4946214;29;20454;-85
2021/08/24 07:03:25;;;;;;;10.93;6.90;;;14.90;99.90;;;;;;4938653;29;20473;-87
2021/08/24 07:05:52;;;;;;;8.17;7.57;;;15.10;99.90;;;;;;4939336;29;20902;-84
2021/08/24 07:08:19;;;;;;;6.97;6.27;;;15.20;99.90;;;;;;4938970;29;20490;-84
2021/08/24 07:10:48;;;;;;;8.57;7.77;;;15.40;99.90;;;;;;4939456;29;20469;-85
2021/08/24 07:13:17;;;;;;;6.67;6.03;;;15.30;99.90;;;;;;4939582;29;20580;-84
2021/08/24 07:15:44;;;;;;;6.20;5.70;;;15.40;99.90;;;;;;4940064;29;20488;-82
2021/08/24 07:18:11;;;;;;;6.70;6.20;;;15.30;99.90;;;;;;4939732;29;20478;-83
2021/08/24 07:20:38;;;;;;;6.67;5.97;;;15.40;99.90;;;;;;4939296;29;20958;-84
2021/08/24 07:23:05;;;;;;;6.10;5.50;;;15.40;99.90;;;;;;4938836;29;20466;-84
2021/08/24 07:25:37;;;;;;;6.13;5.63;;;15.20;99.90;;;;;;4939108;29;20458;-83
2021/08/24 07:28:10;;;;;;;6.70;6.10;;;15.10;99.90;;;;;;4939563;29;20457;-85
2021/08/24 07:30:37;;;;;;;6.27;5.60;;;15.10;99.90;;;;;;4940250;29;20454;-84
2021/08/24 07:33:04;;;;;;;7.00;6.30;;;15.10;99.90;;;;;;4937637;29;20454;-85
2021/08/24 07:35:31;;;;;;;6.87;6.23;;;15.10;99.90;;;;;;4938717;28;20458;-84
2021/08/24 08:10:08;;;;;;;5.60;5.10;;;15.80;99.90;;;;;;4586635;23;20531;-82
2021/08/24 08:12:35;;;;;;;8.67;5.50;;;15.80;99.90;;;;;;4979867;28;20974;-85
2021/08/24 08:15:02;;;;;;;5.60;5.10;;;15.90;99.90;;;;;;4979804;28;20487;-83
2021/08/24 08:17:29;;;;;;;6.10;5.57;;;15.80;99.90;;;;;;4979775;28;20459;-85
2021/08/24 08:19:55;;;;;;;4.87;4.47;;;15.70;99.90;;;;;;4980800;28;20468;-83
2021/08/24 08:22:22;;;;;;;5.50;5.00;;;15.70;99.90;;;;;;4980725;28;20456;-83
2021/08/24 08:24:49;;;;;;;7.37;5.80;;;15.80;99.90;;;;;;4980451;28;20459;-81
2021/08/24 08:27:17;;;;;;;5.47;4.83;;;15.90;99.90;;;;;;4980290;28;20467;-83
2021/08/24 08:32:25;;;;;;;6.33;5.27;;;16.10;99.90;;;;;;5340901;23;20556;-85
2021/08/24 08:34:52;;;;;;;8.07;4.83;;;16.30;99.90;;;;;;4982043;28;20503;-85
2021/08/24 09:03:18;;;;;;;5.57;5.13;;;17.30;99.90;;;;;;4688465;30;20494;-83
2021/08/24 09:05:49;;;;;;;5.40;4.90;;;17.30;99.90;;;;;;4890470;29;20469;-82
2021/08/24 09:08:31;;;;;;;5.20;4.77;;;17.50;99.90;;;;;;4965005;29;20465;-83
2021/08/24 09:11:00;;;;;;;5.00;4.60;;;17.50;99.90;;;;;;4966372;28;20549;-83
2021/08/24 09:13:40;;;;;;;6.30;5.80;;;17.80;99.90;;;;;;4967544;28;20448;-83
2021/08/24 09:40:05;;;;;;;5.63;5.10;;;18.00;99.90;;;;;;4957164;28;20475;-83
2021/08/24 09:42:41;;;;;;;5.30;4.90;;;17.80;99.90;;;;;;4954598;28;20462;-83
2021/08/24 09:45:31;;;;;;;4.87;4.57;;;17.90;99.90;;;;;;4966549;29;20452;-83
2021/08/24 09:48:09;;;;;;;5.63;5.23;;;17.90;99.90;;;;;;4965570;29;20455;-82
2021/08/24 12:30:15;;;;;;;5.67;5.27;;;19.60;99.90;;;;;;4226156;23;20499;-83
2021/08/24 12:46:38;;;;;;;6.43;5.93;;;18.90;99.90;;;;;;4885462;29;20446;-82
2021/08/24 12:49:33;;;;;;;6.47;5.87;;;19.00;99.90;;;;;;4964033;28;20474;-83
2021/08/24 12:52:21;;;;;;;5.63;5.23;;;18.90;99.90;;;;;;4986393;28;20469;-84
2021/08/24 12:54:50;;;;;;;6.50;5.90;;;18.80;99.90;;;;;;4983195;28;20491;-84
2021/08/24 12:57:20;;;;;;;8.37;5.67;;;18.90;99.90;;;;;;4986398;28;20455;-82
2021/08/24 12:59:49;;;;;;;6.10;5.50;;;18.90;99.90;;;;;;4986361;28;20478;-83
2021/08/24 13:02:29;;;;;;;6.60;6.10;;;18.80;99.90;;;;;;4986201;28;20457;-84
2021/08/24 13:04:59;;;;;;;6.00;5.60;;;18.60;99.90;;;;;;4984488;28;20447;-82
2021/08/24 13:07:37;;;;;;;5.43;4.93;;;18.70;99.90;;;;;;4986435;28;20454;-83
2021/08/24 13:10:18;;;;;;;5.30;4.63;;;19.00;99.90;;;;;;4988046;28;20866;-83
2021/08/24 13:12:46;;;;;;;5.57;5.10;;;19.50;99.90;;;;;;4986409;28;20451;-83
2021/08/24 13:15:53;;;;;;;5.90;5.30;;;20.10;99.90;;;;;;4983339;28;20488;-82
2021/08/24 13:18:27;;;;;;;5.50;5.00;;;20.50;99.90;;;;;;4979353;28;20444;-83
2021/08/24 13:21:04;;;;;;;5.73;5.33;;;20.60;99.90;;;;;;4981828;28;20457;-83
2021/08/24 13:23:36;;;;;;;5.30;4.83;;;20.60;99.90;;;;;;4985369;28;20952;-83
2021/08/24 13:26:11;;;;;;;5.50;5.07;;;20.40;99.90;;;;;;4985704;28;20452;-83
2021/08/24 13:28:38;;;;;;;5.27;4.87;;;20.50;99.90;;;;;;4986355;28;20479;-83
2021/08/24 13:31:08;;;;;;;5.13;4.73;;;20.60;99.90;;;;;;4982483;28;20456;-83
2021/08/24 13:33:43;;;;;;;5.53;5.10;;;20.70;99.90;;;;;;4978667;28;20468;-84
2021/08/24 13:36:18;;;;;;;5.03;4.60;;;20.50;99.90;;;;;;4984926;28;20487;-81
2021/08/24 13:38:48;;;;;;;5.70;5.20;;;20.50;99.90;;;;;;4984667;28;20476;-83
2021/08/24 13:41:19;;;;;;;5.30;4.90;;;20.50;99.90;;;;;;4983202;28;20454;-82
2021/08/24 13:43:50;;;;;;;6.90;6.20;;;20.50;99.90;;;;;;4983093;28;20466;-81
2021/08/24 13:46:25;;;;;;;4.20;3.90;;;20.60;99.90;;;;;;4983506;28;20498;-83
2021/08/24 13:48:53;;;;;;;4.60;4.30;;;20.80;99.90;;;;;;4983667;28;20472;-81
2021/08/24 13:51:21;;;;;;;4.97;4.57;;;21.10;99.90;;;;;;4985469;28;20453;-81
2021/08/24 13:53:54;;;;;;;4.97;4.50;;;21.30;99.90;;;;;;4981169;28;20517;-82
2021/08/24 13:56:31;;;;;;;5.37;4.90;;;21.50;99.90;;;;;;4983431;28;20492;-82
2021/08/24 13:59:00;;;;;;;5.10;4.70;;;21.60;99.90;;;;;;4980478;28;20465;-82
2021/08/24 14:01:29;;;;;;;5.77;5.27;;;21.60;99.90;;;;;;4972800;28;21032;-83
2021/08/24 14:04:01;;;;;;;5.23;4.83;;;21.40;99.90;;;;;;4957062;29;20462;-82
2021/08/24 14:06:30;;;;;;;5.10;4.80;;;21.30;99.90;;;;;;4959756;29;20449;-83
2021/08/24 14:09:01;;;;;;;5.23;4.83;;;21.10;99.90;;;;;;4960164;29;20474;-83
2021/08/24 14:11:30;;;;;;;4.10;3.83;;;21.10;99.90;;;;;;4959281;29;20525;-84
2021/08/24 14:13:57;;;;;;;3.80;3.50;;;21.40;99.90;;;;;;4958784;29;20458;-82
2021/08/24 14:16:31;;;;;;;4.20;3.67;;;22.00;99.90;;;;;;4955111;28;20494;-84
2021/08/24 14:19:05;;;;;;;4.23;3.93;;;22.50;99.90;;;;;;4957355;29;20469;-83
2021/08/24 14:21:33;;;;;;;4.37;3.97;;;22.80;99.80;;;;;;4957325;29;20456;-83
2021/08/24 14:24:04;;;;;;;4.50;4.20;;;23.40;99.90;;;;;;4956426;29;20453;-82
2021/08/24 14:26:34;;;;;;;4.60;4.27;;;24.20;99.60;;;;;;4966953;29;20539;-82
2021/08/24 14:29:07;;;;;;;4.50;4.20;;;24.80;98.50;;;;;;4966833;28;20607;-83
2021/08/24 14:31:41;;;;;;;4.37;3.97;;;25.00;96.70;;;;;;4965109;29;20454;-82
2021/08/24 14:34:19;;;;;;;4.07;3.77;;;25.10;95.50;;;;;;4964404;29;20457;-83
2021/08/24 14:36:58;;;;;;;5.73;5.33;;;24.80;95.10;;;;;;4958370;29;20512;-82
2021/08/24 14:39:30;;;;;;;6.03;4.50;;;24.30;95.20;;;;;;4958727;29;20472;-84
2021/08/24 14:41:59;;;;;;;4.57;4.13;;;24.30;96.20;;;;;;4953806;29;20860;-83
2021/08/24 14:44:29;;;;;;;5.37;4.97;;;24.30;96.30;;;;;;4954299;28;20452;-83
2021/08/24 14:46:58;;;;;;;5.20;4.80;;;24.50;95.80;;;;;;4954785;29;20556;-83
2021/08/24 14:49:30;;;;;;;4.80;4.40;;;24.40;95.60;;;;;;4954970;29;20473;-83
2021/08/24 14:51:57;;;;;;;5.83;5.33;;;24.50;95.90;;;;;;4951806;28;20459;-83
2021/08/24 14:54:27;;;;;;;5.23;4.80;;;24.20;95.50;;;;;;4953862;29;20465;-83
2021/08/24 14:56:54;;;;;;;5.10;4.60;;;23.90;96.10;;;;;;4953955;29;20467;-83
2021/08/24 14:59:28;;;;;;;5.00;4.60;;;23.80;96.50;;;;;;4954462;29;20479;-83
2021/08/24 15:02:20;;;;;;;6.37;4.97;;;23.40;96.10;;;;;;4943213;28;20467;-84
2021/08/24 15:04:49;;;;;;;4.60;4.30;;;23.30;97.10;;;;;;4943529;29;20456;-83
2021/08/24 15:07:18;;;;;;;7.60;6.03;;;22.70;97.20;;;;;;4935762;29;20464;-83
2021/08/24 15:09:50;;;;;;;5.30;4.90;;;22.80;98.30;;;;;;4938694;29;20475;-83
2021/08/24 15:12:24;;;;;;;4.87;4.47;;;22.90;98.70;;;;;;4937901;29;20461;-84
2021/08/24 15:14:53;;;;;;;6.07;5.57;;;22.90;98.30;;;;;;4942785;29;20488;-83
2021/08/24 15:17:39;;;;;;;5.53;5.13;;;22.80;97.80;;;;;;4943288;29;20462;-82
2021/08/24 15:20:10;;;;;;;5.73;5.33;;;22.60;97.80;;;;;;4945501;29;20476;-83
2021/08/24 15:22:40;;;;;;;5.93;5.43;;;22.20;97.80;;;;;;4944725;29;20467;-84
2021/08/24 15:25:09;;;;;;;5.93;5.43;;;22.20;98.50;;;;;;4947977;29;20455;-84
2021/08/24 15:27:46;;;;;;;5.40;4.93;;;22.20;97.70;;;;;;4947056;29;20495;-81
2021/08/24 15:30:19;;;;;;;4.83;4.23;;;22.50;98.00;;;;;;4946884;29;20490;-82
2021/08/24 15:32:49;;;;;;;5.53;5.03;;;22.80;97.80;;;;;;4947448;29;20559;-82
2021/08/24 15:35:20;;;;;;;5.20;4.77;;;23.40;97.40;;;;;;4948490;29;20493;-83
2021/08/24 15:37:48;;;;;;;5.53;5.07;;;23.70;96.20;;;;;;4948405;29;20458;-83
2021/08/24 15:40:17;;;;;;;5.93;5.53;;;23.80;96.30;;;;;;4948985;29;20631;-83
2021/08/24 15:42:44;;;;;;;4.90;4.40;;;23.90;96.40;;;;;;4949302;29;20835;-83
2021/08/24 15:45:16;;;;;;;5.57;5.17;;;24.10;96.20;;;;;;4949837;29;20549;-83
2021/08/24 15:47:43;;;;;;;5.90;5.43;;;24.10;96.00;;;;;;4949132;29;20454;-83
2021/08/24 15:50:10;;;;;;;6.13;5.70;;;23.70;95.70;;;;;;4948243;29;20478;-81
2021/08/24 15:52:39;;;;;;;5.97;5.50;;;23.40;95.50;;;;;;4948818;29;20464;-82
2021/08/24 15:55:19;;;;;;;6.60;6.10;;;23.20;96.00;;;;;;4949151;29;20502;-83
2021/08/24 15:57:45;;;;;;;5.97;5.57;;;23.60;96.60;;;;;;4949386;29;20453;-83
2021/08/24 16:00:14;;;;;;;5.70;5.20;;;23.80;96.50;;;;;;4948776;29;21004;-83
2021/08/24 16:02:40;;;;;;;5.27;4.70;;;23.90;96.30;;;;;;4948214;29;20455;-82
2021/08/24 16:05:10;;;;;;;5.93;5.53;;;24.10;95.60;;;;;;4947405;29;20450;-82
2021/08/24 16:07:38;;;;;;;6.47;5.97;;;23.90;94.40;;;;;;4965806;28;20453;-83
2021/08/24 16:10:06;;;;;;;6.70;6.20;;;23.90;95.10;;;;;;4967184;29;20468;-82
2021/08/24 16:12:36;;;;;;;6.87;6.27;;;23.90;94.30;;;;;;4966613;28;20520;-82
2021/08/24 16:15:04;;;;;;;6.73;6.13;;;24.10;94.60;;;;;;4967634;29;21024;-82
2021/08/24 16:17:30;;;;;;;6.07;5.60;;;24.10;94.10;;;;;;4966917;29;21057;-83
2021/08/24 16:19:58;;;;;;;5.67;5.23;;;24.10;94.00;;;;;;4966203;28;20465;-82
2021/08/24 16:22:35;;;;;;;6.03;5.60;;;24.30;94.20;;;;;;4967551;29;20453;-83
2021/08/24 16:25:05;;;;;;;6.50;6.00;;;24.30;93.00;;;;;;4967430;29;20467;-84
2021/08/24 16:27:32;;;;;;;6.10;5.60;;;24.30;93.70;;;;;;4965666;29;20464;-83
2021/08/24 16:29:58;;;;;;;6.37;5.87;;;24.30;93.10;;;;;;4963940;29;20481;-83
2021/08/24 16:32:25;;;;;;;6.63;6.03;;;23.90;93.50;;;;;;4940083;28;20458;-82
2021/08/24 16:34:52;;;;;;;6.90;6.40;;;24.00;93.80;;;;;;4945932;29;20453;-83
2021/08/24 16:37:20;;;;;;;6.10;5.60;;;23.90;93.60;;;;;;4948473;29;20454;-81
2021/08/24 16:39:50;;;;;;;6.00;5.60;;;23.90;94.50;;;;;;4945755;29;20473;-83
2021/08/24 16:42:17;;;;;;;7.70;6.70;;;23.90;94.60;;;;;;4947652;29;20506;-83
2021/08/24 16:44:44;;;;;;;7.27;6.60;;;23.90;93.90;;;;;;4945089;29;20846;-83
2021/08/24 16:47:11;;;;;;;7.27;6.67;;;23.80;93.90;;;;;;4945470;29;20472;-83
2021/08/24 16:49:39;;;;;;;7.00;6.50;;;23.70;94.30;;;;;;4944814;29;20469;-83
2021/08/24 16:52:07;;;;;;;7.20;6.60;;;23.80;94.20;;;;;;4944639;29;20464;-82
2021/08/24 16:54:35;;;;;;;8.87;7.43;;;23.90;94.40;;;;;;4945856;29;20464;-82
2021/08/24 16:57:02;;;;;;;7.83;7.23;;;23.30;94.50;;;;;;4946956;29;20489;-82
2021/08/24 16:59:28;;;;;;;7.40;6.80;;;23.30;94.70;;;;;;4950085;29;20476;-83
2021/08/24 17:01:55;;;;;;;7.80;7.13;;;23.30;94.90;;;;;;4948899;29;20475;-82
2021/08/24 17:04:24;;;;;;;7.70;6.97;;;23.50;95.10;;;;;;4946294;29;20836;-82
2021/08/24 17:06:51;;;;;;;8.10;7.40;;;23.60;94.60;;;;;;4945408;29;20814;-83
2021/08/24 17:09:18;;;;;;;7.60;7.00;;;23.60;94.90;;;;;;4945402;29;20484;-83
2021/08/24 17:11:46;;;;;;;8.60;7.93;;;23.80;94.70;;;;;;4944394;29;20454;-82
2021/08/24 17:14:12;;;;;;;7.17;6.67;;;23.90;95.10;;;;;;4947282;29;20454;-82
2021/08/24 17:16:39;;;;;;;7.70;7.00;;;24.40;94.60;;;;;;4939813;29;21032;-83
2021/08/24 17:19:06;;;;;;;6.73;6.20;;;24.50;93.90;;;;;;4941467;29;20477;-81
2021/08/24 17:21:33;;;;;;;7.10;6.60;;;24.80;93.90;;;;;;4941883;29;20463;-83
2021/08/24 17:23:59;;;;;;;7.50;6.90;;;25.20;93.70;;;;;;4946207;29;20460;-84
2021/08/24 17:26:27;;;;;;;7.87;7.17;;;25.40;93.40;;;;;;4950153;29;20447;-81
2021/08/24 17:28:57;;;;;;;8.00;7.30;;;25.60;92.70;;;;;;4951604;29;20523;-83
2021/08/24 17:31:25;;;;;;;8.63;6.90;;;25.80;92.60;;;;;;4951278;29;20459;-83
2021/08/24 17:33:52;;;;;;;8.47;7.60;;;25.90;92.30;;;;;;4952070;28;20504;-83
2021/08/24 17:36:19;;;;;;;9.87;9.23;;;25.70;92.30;;;;;;4952477;29;21013;-82
2021/08/24 17:38:46;;;;;;;8.87;8.20;;;25.30;91.80;;;;;;4951026;29;20822;-83
2021/08/24 17:41:25;;;;;;;9.10;8.30;;;25.00;92.50;;;;;;4950199;29;20441;-82
2021/08/24 17:43:55;;;;;;;8.87;7.97;;;24.60;93.10;;;;;;4951589;29;20445;-83
2021/08/24 17:46:22;;;;;;;7.77;7.17;;;24.00;93.80;;;;;;4952487;29;20448;-83
2021/08/24 17:48:51;;;;;;;7.93;7.33;;;23.50;94.30;;;;;;4954717;29;21018;-84
2021/08/24 17:51:20;;;;;;;8.70;8.00;;;23.10;94.90;;;;;;4947077;29;20998;-83
2021/08/24 17:53:50;;;;;;;8.87;8.17;;;22.80;95.50;;;;;;4946738;29;20977;-82
2021/08/24 17:56:19;;;;;;;8.37;7.70;;;22.30;96.40;;;;;;4946014;29;20585;-81
2021/08/24 17:58:46;;;;;;;9.70;8.70;;;21.90;96.70;;;;;;4945165;29;20471;-80
2021/08/24 18:01:15;;;;;;;7.97;7.37;;;21.50;97.40;;;;;;4944607;29;20525;-81
2021/08/24 18:03:43;;;;;;;9.77;8.73;;;21.30;98.00;;;;;;4944539;29;20464;-84
2021/08/24 18:06:24;;;;;;;9.80;8.90;;;20.70;98.30;;;;;;4948918;28;20457;-82
2021/08/24 18:08:51;;;;;;;9.97;9.07;;;20.30;99.40;;;;;;4963008;29;20494;-81
2021/08/24 18:11:20;;;;;;;9.60;8.60;;;19.90;99.80;;;;;;4962950;29;20464;-83
2021/08/24 18:13:46;;;;;;;9.97;9.07;;;19.80;99.90;;;;;;4960213;29;20471;-83
2021/08/24 18:16:15;;;;;;;9.90;9.20;;;19.70;99.90;;;;;;4960396;29;20856;-83
2021/08/24 18:18:42;;;;;;;9.67;8.87;;;19.60;99.90;;;;;;4960873;29;20480;-83
2021/08/24 18:21:09;;;;;;;9.33;8.53;;;19.50;99.90;;;;;;4960425;28;20467;-81
2021/08/24 18:23:36;;;;;;;9.47;8.77;;;19.30;99.90;;;;;;4959778;29;20542;-83
2021/08/24 18:26:03;;;;;;;10.83;9.93;;;19.20;99.90;;;;;;4961441;29;20524;-83
2021/08/24 18:28:29;;;;;;;10.37;9.57;;;19.10;99.90;;;;;;4960402;29;20485;-80
2021/08/24 18:30:56;;;;;;;9.53;8.67;;;18.70;99.90;;;;;;4958858;29;20462;-82
2021/08/24 18:33:24;;;;;;;8.27;7.57;;;18.70;99.90;;;;;;4958814;29;20463;-82
2021/08/24 18:35:54;;;;;;;9.30;8.50;;;18.60;99.90;;;;;;4958803;29;21286;-82
2021/08/24 18:38:23;;;;;;;8.00;7.30;;;18.50;99.90;;;;;;4959519;29;20459;-82
2021/08/24 18:40:51;;;;;;;8.33;7.60;;;18.40;99.90;;;;;;4959019;29;20466;-82
2021/08/24 18:43:20;;;;;;;9.00;8.20;;;18.40;99.90;;;;;;4942348;28;20471;-81
2021/08/24 18:45:52;;;;;;;8.40;7.70;;;18.40;99.90;;;;;;4944474;28;20533;-83
2021/08/24 18:48:19;;;;;;;8.80;8.10;;;18.30;99.90;;;;;;4960603;29;20886;-83
2021/08/24 18:50:50;;;;;;;8.40;7.60;;;18.40;99.90;;;;;;4960478;29;20455;-83
2021/08/24 18:53:18;;;;;;;8.17;7.57;;;18.30;99.90;;;;;;4960264;29;20462;-83
2021/08/24 18:55:48;;;;;;;8.40;7.80;;;18.30;99.90;;;;;;4960821;29;20455;-83
2021/08/24 18:58:17;;;;;;;8.67;7.87;;;18.20;99.90;;;;;;4960967;29;20930;-83
2021/08/24 19:00:53;;;;;;;12.53;9.70;;;18.20;99.90;;;;;;4961213;29;20828;-83
2021/08/24 19:03:20;;;;;;;7.30;6.70;;;18.20;99.90;;;;;;4960923;29;20455;-84
2021/08/24 19:05:49;;;;;;;8.73;7.93;;;18.20;99.90;;;;;;4961035;29;20462;-81
2021/08/24 19:08:16;;;;;;;8.33;7.60;;;18.20;99.90;;;;;;4958522;29;20467;-80
2021/08/24 19:10:44;;;;;;;9.33;8.40;;;18.10;99.90;;;;;;4958518;29;20471;-81
2021/08/24 19:13:11;;;;;;;7.97;7.23;;;18.20;99.90;;;;;;4957511;29;20466;-81
2021/08/24 19:15:42;;;;;;;8.30;7.50;;;18.20;99.90;;;;;;4958570;29;20454;-81
2021/08/24 19:18:10;;;;;;;10.20;8.60;;;18.10;99.90;;;;;;4959009;29;20441;-81
2021/08/24 19:20:38;;;;;;;8.63;7.93;;;18.10;99.90;;;;;;4959213;29;20452;-81
2021/08/24 19:23:07;;;;;;;8.07;7.47;;;18.10;99.90;;;;;;4956864;29;20466;-82
2021/08/24 19:25:35;;;;;;;8.43;7.63;;;18.00;99.90;;;;;;4959187;29;20465;-83
2021/08/24 19:28:02;;;;;;;8.13;7.40;;;18.00;99.90;;;;;;4949474;29;20879;-82
2021/08/24 19:30:29;;;;;;;8.67;7.97;;;17.90;99.90;;;;;;4951627;29;20532;-82
2021/08/24 19:32:56;;;;;;;8.27;7.50;;;17.80;99.90;;;;;;4949940;29;20538;-82
2021/08/24 19:35:26;;;;;;;9.33;8.53;;;17.90;99.90;;;;;;4950922;28;20459;-83
2021/08/24 19:37:54;;;;;;;9.67;8.80;;;17.80;99.90;;;;;;4951283;29;20493;-82
2021/08/24 19:40:23;;;;;;;12.40;7.27;;;17.80;99.90;;;;;;4948782;29;20483;-81
2021/08/24 19:42:49;;;;;;;9.70;8.83;;;17.80;99.90;;;;;;4948354;29;20469;-82
2021/08/24 19:45:19;;;;;;;8.37;7.57;;;17.70;99.90;;;;;;4945603;28;20817;-82
2021/08/24 19:47:46;;;;;;;8.27;7.53;;;17.70;99.90;;;;;;4947782;28;20459;-82
2021/08/24 19:50:13;;;;;;;9.27;8.43;;;17.70;99.90;;;;;;4949730;28;21084;-82
2021/08/24 19:52:41;;;;;;;9.30;8.33;;;17.70;99.90;;;;;;4948677;29;20455;-82
2021/08/24 19:55:10;;;;;;;9.43;8.63;;;17.70;99.90;;;;;;4951830;28;20448;-82
2021/08/24 19:57:39;;;;;;;11.40;8.37;;;17.70;99.90;;;;;;4949576;29;20507;-82
2021/08/24 20:00:07;;;;;;;8.70;7.93;;;17.70;99.90;;;;;;4952846;29;20576;-82
2021/08/24 20:02:34;;;;;;;9.53;8.40;;;17.60;99.90;;;;;;4951165;28;20460;-82
2021/08/24 20:05:01;;;;;;;9.97;8.60;;;17.50;99.90;;;;;;4954443;29;20442;-82
2021/08/24 20:07:28;;;;;;;10.33;9.30;;;17.60;99.90;;;;;;4952296;29;20506;-82
2021/08/24 20:09:54;;;;;;;10.13;8.77;;;17.50;99.90;;;;;;4953446;28;20481;-82
2021/08/24 20:12:24;;;;;;;10.27;9.37;;;17.50;99.90;;;;;;4948253;29;20458;-82
2021/08/24 20:14:52;;;;;;;9.33;8.53;;;17.40;99.90;;;;;;4953157;29;20939;-82
2021/08/24 20:17:21;;;;;;;9.97;9.03;;;17.30;99.90;;;;;;4951532;29;20479;-82
2021/08/24 20:19:49;;;;;;;9.83;8.87;;;17.30;99.90;;;;;;4953859;28;20471;-83
2021/08/24 20:22:16;;;;;;;8.60;7.80;;;17.20;99.90;;;;;;4952561;28;20453;-82
2021/08/24 20:24:43;;;;;;;10.47;9.57;;;17.20;99.90;;;;;;4951427;29;20458;-82
2021/08/24 20:27:09;;;;;;;10.33;9.33;;;17.10;99.90;;;;;;4950808;29;20932;-82
2021/08/24 20:29:36;;;;;;;9.67;8.73;;;17.10;99.90;;;;;;4952238;29;20843;-82
2021/08/24 20:32:06;;;;;;;10.10;9.10;;;17.10;99.90;;;;;;4951721;29;20447;-82
2021/08/24 20:34:33;;;;;;;10.00;9.10;;;17.00;99.90;;;;;;4955805;29;20450;-82
2021/08/24 20:37:00;;;;;;;10.33;9.53;;;17.00;99.90;;;;;;4956716;29;20501;-82
2021/08/24 20:39:27;;;;;;;9.80;9.10;;;17.00;99.90;;;;;;4951397;28;20477;-82
2021/08/24 20:41:54;;;;;;;10.90;9.77;;;16.80;99.90;;;;;;4951543;29;20445;-82
2021/08/24 20:44:21;;;;;;;9.23;8.40;;;16.80;99.90;;;;;;4951635;29;20450;-82
2021/08/24 20:46:48;;;;;;;8.87;8.00;;;16.80;99.90;;;;;;4953557;28;20442;-82
2021/08/24 20:49:16;;;;;;;10.23;9.30;;;16.70;99.90;;;;;;4951055;29;20474;-82
2021/08/24 20:51:43;;;;;;;10.30;9.40;;;16.60;99.90;;;;;;4952196;28;20457;-82
2021/08/24 20:54:10;;;;;;;10.90;9.80;;;16.60;99.90;;;;;;4953216;29;20458;-82
2021/08/24 20:56:37;;;;;;;11.40;10.40;;;16.50;99.90;;;;;;4950715;29;20501;-82
2021/08/24 20:59:04;;;;;;;9.90;8.90;;;16.40;99.90;;;;;;4952229;28;20473;-82
2021/08/24 21:01:37;;;;;;;11.03;9.93;;;16.40;99.90;;;;;;4952710;29;20970;-82
2021/08/24 21:04:05;;;;;;;11.90;10.80;;;16.30;99.90;;;;;;4954288;29;20461;-82
2021/08/24 21:06:35;;;;;;;10.80;9.90;;;16.30;99.90;;;;;;4962151;28;20453;-82
2021/08/24 21:09:02;;;;;;;10.63;9.73;;;16.30;99.90;;;;;;4962200;29;20851;-82
2021/08/24 21:11:29;;;;;;;11.10;9.90;;;16.30;99.90;;;;;;4961879;28;20448;-82
2021/08/24 21:13:56;;;;;;;11.50;10.50;;;16.30;99.90;;;;;;4961707;28;20525;-82
2021/08/24 21:16:23;;;;;;;10.63;9.73;;;16.30;99.90;;;;;;4962411;28;20457;-82
2021/08/24 21:18:49;;;;;;;12.00;11.03;;;16.20;99.90;;;;;;4961850;28;20474;-82
2021/08/24 21:21:17;;;;;;;10.73;9.83;;;16.10;99.90;;;;;;4961922;28;20461;-82
2021/08/24 21:23:45;;;;;;;10.17;9.30;;;16.10;99.90;;;;;;4960385;29;20452;-82
2021/08/24 21:26:12;;;;;;;9.67;8.77;;;16.10;99.90;;;;;;4961388;28;20460;-82
2021/08/24 21:28:39;;;;;;;10.87;9.97;;;16.10;99.90;;;;;;4961200;28;20487;-82
2021/08/24 21:31:06;;;;;;;14.50;10.27;;;16.10;99.90;;;;;;4961819;29;20457;-82
2021/08/24 21:33:33;;;;;;;10.53;9.43;;;16.00;99.90;;;;;;4960239;28;20469;-82
2021/08/24 21:36:09;;;;;;;10.13;9.23;;;15.90;99.90;;;;;;4961542;29;20453;-82
2021/08/24 21:38:36;;;;;;;10.63;9.73;;;16.00;99.90;;;;;;4960350;29;20540;-82
2021/08/24 21:41:06;;;;;;;9.63;8.60;;;16.00;99.90;;;;;;4961031;28;20458;-82
2021/08/24 21:43:36;;;;;;;11.70;10.70;;;15.90;99.90;;;;;;4960442;28;20459;-82
2021/08/24 21:46:04;;;;;;;10.33;9.43;;;15.90;99.90;;;;;;4941925;29;20969;-83
2021/08/24 21:48:30;;;;;;;11.87;10.03;;;15.90;99.90;;;;;;4940020;29;20477;-82
2021/08/24 21:50:58;;;;;;;10.97;9.97;;;15.90;99.90;;;;;;4939835;29;20458;-82
2021/08/24 21:53:25;;;;;;;12.50;11.23;;;15.90;99.90;;;;;;4938827;29;20464;-82
2021/08/24 21:55:53;;;;;;;12.30;11.20;;;15.90;99.90;;;;;;4939674;29;20472;-82
2021/08/24 21:58:22;;;;;;;12.40;11.17;;;15.90;99.90;;;;;;4939700;29;20840;-82
2021/08/24 22:00:49;;;;;;;10.57;9.43;;;15.90;99.90;;;;;;4939586;29;20454;-82
2021/08/24 22:03:17;;;;;;;11.83;10.80;;;15.90;99.90;;;;;;4939351;29;20458;-82
2021/08/24 22:05:46;;;;;;;12.60;11.40;;;15.90;99.90;;;;;;4939967;29;20458;-82
2021/08/24 22:08:14;;;;;;;11.27;10.17;;;15.80;99.90;;;;;;4939874;29;20453;-82
2021/08/24 22:10:46;;;;;;;12.97;10.57;;;15.90;99.90;;;;;;4940144;29;20474;-82
2021/08/24 22:13:13;;;;;;;11.87;10.67;;;15.90;99.90;;;;;;4939501;29;20473;-82
2021/08/24 22:15:41;;;;;;;12.57;11.33;;;15.90;99.90;;;;;;4939629;29;20466;-82
2021/08/24 22:18:08;;;;;;;12.00;10.90;;;15.90;99.90;;;;;;4938341;29;20998;-82
2021/08/24 22:20:39;;;;;;;11.13;10.13;;;15.90;99.90;;;;;;4939898;29;20454;-83
2021/08/24 22:23:07;;;;;;;12.30;11.20;;;15.90;99.90;;;;;;4938873;29;20797;-82
2021/08/24 22:25:34;;;;;;;10.70;9.67;;;15.90;99.90;;;;;;4939261;29;20446;-85
2021/08/24 22:28:02;;;;;;;10.23;9.43;;;16.00;99.90;;;;;;4939428;29;20449;-85
2021/08/24 22:30:30;;;;;;;11.03;10.13;;;16.00;99.90;;;;;;4939016;29;20497;-82
2021/08/24 22:33:01;;;;;;;9.57;8.87;;;15.80;99.90;;;;;;4938031;29;20477;-82
2021/08/24 22:36:07;;;;;;;12.23;10.93;;;15.80;99.90;;;;;;4938930;29;20882;-82
2021/08/24 22:38:37;;;;;;;11.50;10.50;;;15.80;99.90;;;;;;4939166;29;20504;-82
2021/08/24 22:41:06;;;;;;;11.37;10.17;;;15.80;99.90;;;;;;4938876;29;20459;-82
2021/08/24 22:43:33;;;;;;;12.67;11.47;;;15.70;99.90;;;;;;4938137;29;20553;-82
2021/08/24 22:46:02;;;;;;;12.63;11.43;;;15.60;99.90;;;;;;4938551;29;20454;-82
2021/08/24 22:48:29;;;;;;;13.40;11.73;;;15.60;99.90;;;;;;4938987;29;20993;-82
2021/08/24 22:50:56;;;;;;;12.77;11.47;;;15.60;99.90;;;;;;4939534;29;20445;-82
2021/08/24 22:53:23;;;;;;;12.87;11.67;;;15.60;99.90;;;;;;4938791;29;20457;-82
2021/08/24 22:55:52;;;;;;;11.90;10.80;;;15.40;99.90;;;;;;4938648;29;20470;-82
2021/08/24 22:58:19;;;;;;;12.50;11.27;;;15.40;99.90;;;;;;4939525;29;20494;-82
2021/08/24 23:00:46;;;;;;;14.60;13.33;;;15.40;99.90;;;;;;4940497;29;20485;-82
2021/08/24 23:03:13;;;;;;;12.67;11.43;;;15.40;99.90;;;;;;4941787;29;20450;-81
2021/08/24 23:05:40;;;;;;;12.53;11.27;;;15.30;99.90;;;;;;4939091;29;20458;-82
2021/08/24 23:08:07;;;;;;;13.80;12.40;;;15.30;99.90;;;;;;4938870;29;20450;-82
2021/08/24 23:10:33;;;;;;;13.23;11.93;;;15.20;99.90;;;;;;4941134;29;20461;-82
2021/08/24 23:13:02;;;;;;;14.77;13.20;;;15.20;99.90;;;;;;4940676;29;20473;-82
2021/08/24 23:15:28;;;;;;;14.40;13.10;;;15.10;99.90;;;;;;4944980;29;20831;-82
2021/08/24 23:17:55;;;;;;;14.07;12.63;;;15.10;99.90;;;;;;4944437;29;20478;-82
2021/08/24 23:20:22;;;;;;;14.13;12.20;;;14.90;99.90;;;;;;4943410;29;20469;-82
2021/08/24 23:22:48;;;;;;;14.53;13.10;;;14.90;99.90;;;;;;4939314;29;20458;-83
2021/08/24 23:25:15;;;;;;;14.17;12.80;;;14.90;99.90;;;;;;4941514;29;20466;-83